Time;durP1;ratioP1;P1;durP2;ratioP2;P2;SDS_P1;SDS_P2;PMS_P1;PMS_P2;Temp;Humidity;BMP_temperature;BMP_pressure;BME280_temperature;BME280_humidity;BME280_pressure;Samples;Min_cycle;Max_cycle;Signal;HPM_P1;HPM_P2
2021/09/20 00:01:10;;;;;;;;;;;24.40;57.50;;;;;;5074258;28;20036;-61
2021/09/20 00:03:37;;;;;;;;;;;24.40;57.50;;;;;;5088952;28;19963;-61
2021/09/20 00:06:05;;;;;;;;;;;24.40;57.50;;;;;;5077560;28;19970;-61
2021/09/20 00:08:32;;;;;;;;;;;24.40;57.40;;;;;;5074213;28;19924;-60
2021/09/20 00:10:58;;;;;;;;;;;24.40;57.50;;;;;;5064120;28;20015;-61
2021/09/20 00:13:26;;;;;;;;;;;24.40;57.40;;;;;;5069123;28;19958;-60
2021/09/20 00:15:53;;;;;;;;;;;24.40;57.40;;;;;;5075176;28;19925;-61
2021/09/20 00:18:19;;;;;;;;;;;24.40;57.50;;;;;;5075033;28;20331;-60
2021/09/20 00:20:46;;;;;;;;;;;24.40;57.50;;;;;;5076265;28;19983;-61
2021/09/20 00:23:13;;;;;;;;;;;24.40;57.40;;;;;;5075159;28;20465;-61
2021/09/20 00:25:40;;;;;;;;;;;24.40;57.40;;;;;;5073830;28;19924;-61
2021/09/20 00:28:07;;;;;;;;;;;24.30;57.40;;;;;;5075876;28;19960;-60
2021/09/20 00:30:36;;;;;;;;;;;24.40;57.50;;;;;;5078658;28;19967;-61
2021/09/20 00:33:03;;;;;;;;;;;24.40;57.60;;;;;;5087848;28;20038;-61
2021/09/20 00:35:30;;;;;;;;;;;24.30;57.50;;;;;;5073352;28;20338;-61
2021/09/20 00:37:57;;;;;;;;;;;24.40;57.50;;;;;;5058850;28;20307;-61
2021/09/20 00:40:24;;;;;;;;;;;24.40;57.50;;;;;;5092277;28;19924;-61
2021/09/20 00:42:51;;;;;;;;;;;24.40;57.50;;;;;;5057333;28;19932;-60
2021/09/20 00:45:18;;;;;;;;;;;24.40;57.50;;;;;;5057473;28;19963;-61
2021/09/20 00:47:45;;;;;;;;;;;24.40;58.10;;;;;;5073519;28;19971;-61
2021/09/20 00:50:12;;;;;;;;;;;24.30;57.50;;;;;;5073438;28;19999;-61
2021/09/20 00:52:39;;;;;;;;;;;24.30;57.50;;;;;;5057029;28;20016;-61
2021/09/20 00:55:06;;;;;;;;;;;24.40;57.60;;;;;;5072922;28;19929;-61
2021/09/20 00:57:33;;;;;;;;;;;24.40;57.60;;;;;;5060290;28;20321;-60
2021/09/20 01:00:01;;;;;;;;;;;24.40;57.50;;;;;;5071336;28;19969;-61
2021/09/20 01:02:28;;;;;;;;;;;24.40;57.50;;;;;;5074713;28;19924;-60
2021/09/20 01:04:55;;;;;;;;;;;24.40;57.60;;;;;;5074272;28;19962;-60
2021/09/20 01:07:22;;;;;;;;;;;24.40;57.50;;;;;;5074319;28;20415;-61
2021/09/20 01:09:49;;;;;;;;;;;24.40;57.50;;;;;;5084087;28;19986;-61
2021/09/20 01:12:16;;;;;;;;;;;24.40;57.50;;;;;;5090121;28;19979;-61
2021/09/20 01:14:43;;;;;;;;;;;24.40;57.50;;;;;;5081614;28;19924;-61
2021/09/20 01:17:10;;;;;;;;;;;24.40;57.50;;;;;;5105614;27;19928;-61
2021/09/20 01:19:37;;;;;;;;;;;24.40;57.50;;;;;;5071461;28;19925;-60
2021/09/20 01:22:09;;;;;;;;;;;24.40;57.50;;;;;;5073900;28;19925;-61
2021/09/20 01:24:35;;;;;;;;;;;24.40;57.50;;;;;;5072643;28;20015;-61
2021/09/20 01:27:03;;;;;;;;;;;24.40;57.40;;;;;;5071023;28;20329;-61
2021/09/20 01:29:31;;;;;;;;;;;24.40;57.40;;;;;;5059035;28;19997;-60
2021/09/20 01:31:58;;;;;;;;;;;24.40;57.50;;;;;;5072824;28;20019;-61
2021/09/20 01:34:25;;;;;;;;;;;24.40;57.60;;;;;;5073299;28;19978;-61
2021/09/20 01:36:53;;;;;;;;;;;24.40;57.50;;;;;;5056880;28;19963;-61
2021/09/20 01:39:21;;;;;;;;;;;24.40;57.60;;;;;;5055079;28;19931;-61
2021/09/20 01:41:49;;;;;;;;;;;24.40;57.60;;;;;;5073801;28;19924;-61
2021/09/20 01:44:16;;;;;;;;;;;24.40;57.60;;;;;;5073380;28;20015;-60
2021/09/20 01:46:44;;;;;;;;;;;24.30;57.50;;;;;;5090389;28;19962;-61
2021/09/20 01:49:12;;;;;;;;;;;24.30;57.50;;;;;;5089670;28;19924;-61
2021/09/20 01:51:39;;;;;;;;;;;24.30;57.60;;;;;;5090705;28;20287;-60
2021/09/20 01:54:06;;;;;;;;;;;24.30;57.60;;;;;;5090068;28;19950;-61
2021/09/20 01:56:34;;;;;;;;;;;24.30;57.50;;;;;;5074359;28;20418;-61
2021/09/20 01:59:01;;;;;;;;;;;24.40;57.60;;;;;;5073659;28;20003;-61
2021/09/20 02:01:29;;;;;;;;;;;24.40;57.60;;;;;;5084653;28;19962;-61
2021/09/20 02:03:56;;;;;;;;;;;24.40;57.60;;;;;;5067414;28;19959;-61
2021/09/20 02:06:23;;;;;;;;;;;24.40;57.60;;;;;;5066221;28;19971;-61
2021/09/20 02:08:52;;;;;;;;;;;24.40;57.60;;;;;;5072125;28;19975;-61
2021/09/20 02:11:20;;;;;;;;;;;24.30;57.50;;;;;;5072157;28;19925;-61
2021/09/20 02:13:47;;;;;;;;;;;24.40;57.60;;;;;;5073222;28;19960;-61
2021/09/20 02:16:14;;;;;;;;;;;24.40;57.60;;;;;;5072025;28;19924;-61
2021/09/20 02:18:42;;;;;;;;;;;24.30;57.60;;;;;;5064675;28;19974;-61
2021/09/20 02:21:10;;;;;;;;;;;24.40;57.60;;;;;;5060721;28;19925;-60
2021/09/20 02:23:37;;;;;;;;;;;24.40;57.60;;;;;;5074771;28;19967;-61
2021/09/20 02:26:04;;;;;;;;;;;24.30;57.60;;;;;;5077344;28;19975;-61
2021/09/20 02:28:36;;;;;;;;;;;24.30;57.50;;;;;;5075844;28;19971;-61
2021/09/20 02:31:04;;;;;;;;;;;24.30;57.60;;;;;;5076030;28;20046;-60
2021/09/20 02:33:31;;;;;;;;;;;24.30;57.60;;;;;;5079206;28;19931;-60
2021/09/20 02:35:58;;;;;;;;;;;24.30;57.60;;;;;;5093685;28;20077;-60
2021/09/20 02:38:25;;;;;;;;;;;24.30;57.60;;;;;;5077503;28;20019;-61
2021/09/20 02:40:52;;;;;;;;;;;24.30;57.60;;;;;;5058530;28;19932;-60
2021/09/20 02:43:19;;;;;;;;;;;24.40;57.60;;;;;;5076078;28;19930;-61
2021/09/20 02:45:46;;;;;;;;;;;24.30;57.50;;;;;;5074499;28;19928;-60
2021/09/20 02:48:14;;;;;;;;;;;24.40;57.70;;;;;;5077204;28;20284;-61
2021/09/20 02:50:41;;;;;;;;;;;24.30;57.60;;;;;;5075567;28;19924;-60
2021/09/20 02:53:08;;;;;;;;;;;24.30;57.60;;;;;;5092102;28;19998;-60
2021/09/20 02:55:35;;;;;;;;;;;24.30;57.60;;;;;;5077788;28;19925;-60
2021/09/20 02:58:02;;;;;;;;;;;24.30;57.60;;;;;;5089791;28;19947;-61
2021/09/20 03:00:29;;;;;;;;;;;24.30;57.60;;;;;;5082165;28;20020;-60
2021/09/20 03:02:56;;;;;;;;;;;24.30;57.60;;;;;;5075670;28;20036;-61
2021/09/20 03:05:23;;;;;;;;;;;24.30;57.60;;;;;;5076515;28;19924;-61
2021/09/20 03:07:50;;;;;;;;;;;24.30;57.60;;;;;;5075361;28;20376;-61
2021/09/20 03:10:17;;;;;;;;;;;24.30;57.60;;;;;;5075209;28;19952;-60
2021/09/20 03:12:45;;;;;;;;;;;24.30;57.60;;;;;;5082797;28;19924;-60
2021/09/20 03:15:12;;;;;;;;;;;24.30;57.60;;;;;;5085080;28;20384;-61
2021/09/20 03:17:39;;;;;;;;;;;24.30;57.70;;;;;;5074893;28;19963;-60
2021/09/20 03:20:06;;;;;;;;;;;24.30;57.60;;;;;;5076597;28;19964;-60
2021/09/20 03:22:33;;;;;;;;;;;24.30;57.60;;;;;;5074782;28;20016;-60
2021/09/20 03:25:00;;;;;;;;;;;24.30;57.70;;;;;;5079113;28;19924;-61
2021/09/20 03:27:27;;;;;;;;;;;24.30;57.70;;;;;;5089644;28;19959;-61
2021/09/20 03:29:54;;;;;;;;;;;24.30;57.70;;;;;;5075288;28;20388;-61
2021/09/20 03:32:21;;;;;;;;;;;24.30;57.60;;;;;;5075237;28;20059;-60
2021/09/20 03:34:47;;;;;;;;;;;24.30;57.60;;;;;;5074073;28;20015;-60
2021/09/20 03:37:14;;;;;;;;;;;24.30;57.60;;;;;;5076185;28;20354;-61
2021/09/20 03:39:41;;;;;;;;;;;24.30;57.60;;;;;;5056541;28;19991;-61
2021/09/20 03:42:08;;;;;;;;;;;24.30;57.60;;;;;;5057984;28;20456;-61
2021/09/20 03:44:35;;;;;;;;;;;24.30;57.60;;;;;;5073942;28;19924;-61
2021/09/20 03:47:02;;;;;;;;;;;24.30;57.60;;;;;;5074822;28;19985;-61
2021/09/20 03:49:29;;;;;;;;;;;24.30;57.60;;;;;;5061870;28;19932;-61
2021/09/20 03:51:56;;;;;;;;;;;24.30;57.60;;;;;;5074407;28;19980;-61
2021/09/20 03:54:23;;;;;;;;;;;24.30;57.60;;;;;;5076496;28;19968;-60
2021/09/20 03:56:50;;;;;;;;;;;24.30;57.60;;;;;;5074247;28;19935;-61
2021/09/20 03:59:17;;;;;;;;;;;24.30;57.70;;;;;;5073274;28;19924;-61
2021/09/20 04:01:44;;;;;;;;;;;24.30;57.70;;;;;;5072950;28;20011;-61
2021/09/20 04:04:11;;;;;;;;;;;24.30;57.70;;;;;;5075477;28;20369;-61
2021/09/20 04:06:38;;;;;;;;;;;24.30;57.70;;;;;;5075444;28;20458;-61
2021/09/20 04:09:05;;;;;;;;;;;24.30;57.70;;;;;;5075735;28;19928;-61
2021/09/20 04:11:32;;;;;;;;;;;24.30;57.70;;;;;;5075148;28;20335;-61
2021/09/20 04:13:59;;;;;;;;;;;24.30;57.70;;;;;;5112423;27;19924;-61
2021/09/20 04:16:26;;;;;;;;;;;24.30;57.70;;;;;;5088831;28;19924;-61
2021/09/20 04:18:53;;;;;;;;;;;24.30;57.70;;;;;;5063559;28;19963;-61
2021/09/20 04:21:19;;;;;;;;;;;24.30;57.70;;;;;;5090718;28;20326;-61
2021/09/20 04:23:46;;;;;;;;;;;24.30;57.70;;;;;;5075201;28;19964;-61
2021/09/20 04:26:14;;;;;;;;;;;24.30;57.60;;;;;;5076000;28;20283;-61
2021/09/20 04:28:41;;;;;;;;;;;24.30;57.60;;;;;;5057771;28;19925;-61
2021/09/20 04:31:08;;;;;;;;;;;24.30;57.60;;;;;;5092823;28;19930;-61
2021/09/20 04:33:35;;;;;;;;;;;24.30;57.60;;;;;;5090792;28;19928;-61
2021/09/20 04:36:02;;;;;;;;;;;24.30;57.60;;;;;;5075072;28;19924;-61
2021/09/20 04:38:29;;;;;;;;;;;24.30;57.70;;;;;;5074795;28;19924;-61
2021/09/20 04:40:56;;;;;;;;;;;24.30;57.70;;;;;;5073540;28;19925;-61
2021/09/20 04:43:23;;;;;;;;;;;24.30;57.70;;;;;;5087545;28;19963;-61
2021/09/20 04:45:50;;;;;;;;;;;24.30;57.70;;;;;;5077152;28;19998;-61
2021/09/20 04:48:17;;;;;;;;;;;24.30;57.70;;;;;;5074267;28;19929;-61
2021/09/20 04:50:45;;;;;;;;;;;24.30;57.70;;;;;;5073409;28;19955;-61
2021/09/20 04:53:12;;;;;;;;;;;24.30;57.70;;;;;;5074325;28;19960;-61
2021/09/20 04:55:40;;;;;;;;;;;24.30;57.70;;;;;;5072799;28;20012;-61
2021/09/20 04:58:08;;;;;;;;;;;24.30;57.70;;;;;;5074219;28;19978;-61
2021/09/20 05:00:35;;;;;;;;;;;24.30;57.70;;;;;;5065552;28;20438;-61
2021/09/20 05:03:02;;;;;;;;;;;24.30;57.70;;;;;;5065305;28;20014;-61
2021/09/20 05:05:30;;;;;;;;;;;24.30;57.70;;;;;;5074030;28;20338;-61
2021/09/20 05:07:57;;;;;;;;;;;24.30;57.70;;;;;;5074202;28;20400;-61
2021/09/20 05:10:24;;;;;;;;;;;24.30;57.80;;;;;;5076602;28;20429;-61
2021/09/20 05:12:51;;;;;;;;;;;24.30;57.80;;;;;;5086354;28;19956;-61
2021/09/20 05:15:18;;;;;;;;;;;24.30;57.70;;;;;;5074048;28;20380;-61
2021/09/20 05:17:45;;;;;;;;;;;24.30;57.70;;;;;;5068362;28;19925;-60
2021/09/20 05:20:14;;;;;;;;;;;24.30;57.70;;;;;;5088498;28;19924;-60
2021/09/20 05:22:41;;;;;;;;;;;24.30;57.70;;;;;;5073429;28;19974;-61
2021/09/20 05:25:09;;;;;;;;;;;24.30;57.70;;;;;;5056999;28;19983;-61
2021/09/20 05:27:37;;;;;;;;;;;24.30;57.70;;;;;;5073836;28;19928;-61
2021/09/20 05:30:05;;;;;;;;;;;24.30;57.80;;;;;;5053788;28;20300;-61
2021/09/20 05:32:32;;;;;;;;;;;24.30;57.70;;;;;;5072695;28;19964;-61
2021/09/20 05:35:00;;;;;;;;;;;24.30;57.70;;;;;;5057368;28;19964;-61
2021/09/20 05:37:27;;;;;;;;;;;24.30;57.70;;;;;;5072760;28;19943;-61
2021/09/20 05:39:54;;;;;;;;;;;24.30;57.70;;;;;;5073649;28;20086;-61
2021/09/20 05:42:21;;;;;;;;;;;24.30;57.70;;;;;;5072252;28;20015;-61
2021/09/20 05:44:48;;;;;;;;;;;24.30;57.60;;;;;;5073589;28;19971;-61
2021/09/20 05:47:15;;;;;;;;;;;24.30;57.60;;;;;;5073854;28;20019;-61
2021/09/20 05:49:42;;;;;;;;;;;24.30;57.70;;;;;;5082861;28;20011;-61
2021/09/20 05:52:09;;;;;;;;;;;24.30;57.60;;;;;;5080437;28;19924;-61
2021/09/20 05:54:35;;;;;;;;;;;24.30;57.60;;;;;;5073375;28;19974;-61
2021/09/20 05:57:02;;;;;;;;;;;24.30;57.60;;;;;;5074029;28;19960;-61
2021/09/20 05:59:29;;;;;;;;;;;24.30;57.60;;;;;;5073448;28;20004;-60
2021/09/20 06:01:56;;;;;;;;;;;24.40;57.70;;;;;;5072386;28;19989;-61
2021/09/20 06:04:24;;;;;;;;;;;24.40;57.70;;;;;;5070890;28;19925;-60
2021/09/20 06:06:51;;;;;;;;;;;24.40;57.60;;;;;;5076262;28;19994;-61
2021/09/20 06:09:18;;;;;;;;;;;24.40;57.60;;;;;;5086168;28;19933;-60
2021/09/20 06:11:45;;;;;;;;;;;24.40;57.60;;;;;;5073824;28;19960;-62
2021/09/20 06:14:12;;;;;;;;;;;24.40;57.60;;;;;;5088929;28;19971;-60
2021/09/20 06:16:39;;;;;;;;;;;24.40;57.60;;;;;;5072166;28;19967;-61
2021/09/20 06:19:06;;;;;;;;;;;24.40;57.60;;;;;;5055477;28;20290;-61
2021/09/20 06:21:33;;;;;;;;;;;24.40;57.60;;;;;;5071966;28;20012;-60
2021/09/20 06:24:01;;;;;;;;;;;24.40;57.60;;;;;;5054690;28;20369;-61
2021/09/20 06:26:28;;;;;;;;;;;24.40;57.60;;;;;;5054797;28;19929;-61
2021/09/20 06:28:55;;;;;;;;;;;24.40;57.60;;;;;;5073503;28;20459;-61
2021/09/20 06:31:22;;;;;;;;;;;24.40;57.60;;;;;;5073513;28;19996;-61
2021/09/20 06:33:49;;;;;;;;;;;24.40;57.60;;;;;;5073367;28;20030;-60
2021/09/20 06:36:16;;;;;;;;;;;24.40;57.70;;;;;;5071702;28;20396;-60
2021/09/20 06:38:43;;;;;;;;;;;24.40;57.60;;;;;;5073351;28;19930;-60
2021/09/20 06:41:10;;;;;;;;;;;24.40;57.60;;;;;;5073101;28;20404;-61
2021/09/20 06:43:37;;;;;;;;;;;24.40;57.60;;;;;;5082454;28;20110;-60
2021/09/20 06:46:04;;;;;;;;;;;24.40;57.60;;;;;;5078736;28;19976;-61
2021/09/20 06:48:31;;;;;;;;;;;24.40;57.60;;;;;;5072880;28;19974;-60
2021/09/20 06:50:58;;;;;;;;;;;24.40;57.60;;;;;;5073103;28;19934;-60
2021/09/20 06:53:25;;;;;;;;;;;24.40;57.60;;;;;;5071770;28;19975;-60
2021/09/20 06:55:52;;;;;;;;;;;24.40;57.60;;;;;;5073789;28;19929;-61
2021/09/20 06:58:18;;;;;;;;;;;24.40;57.50;;;;;;5077405;28;20384;-61
2021/09/20 07:00:45;;;;;;;;;;;24.40;57.50;;;;;;5086850;28;20011;-61
2021/09/20 07:03:12;;;;;;;;;;;24.40;57.50;;;;;;5070223;28;19943;-61
2021/09/20 07:05:41;;;;;;;;;;;24.40;57.40;;;;;;5056856;28;19938;-61
2021/09/20 07:08:08;;;;;;;;;;;24.40;57.40;;;;;;5071394;28;20007;-61
2021/09/20 07:10:35;;;;;;;;;;;24.50;57.40;;;;;;5075169;28;20371;-61
2021/09/20 07:13:02;;;;;;;;;;;24.50;57.40;;;;;;5058646;28;20398;-61
2021/09/20 07:15:29;;;;;;;;;;;24.50;57.40;;;;;;5076317;28;19967;-61
2021/09/20 07:17:56;;;;;;;;;;;24.50;57.40;;;;;;5057704;28;19928;-61
2021/09/20 07:20:23;;;;;;;;;;;24.50;57.40;;;;;;5074981;28;20388;-61
2021/09/20 07:22:50;;;;;;;;;;;24.50;57.30;;;;;;5074107;28;20036;-61
2021/09/20 07:25:16;;;;;;;;;;;24.50;57.30;;;;;;5076223;28;19976;-61
2021/09/20 07:27:44;;;;;;;;;;;24.50;57.30;;;;;;5074612;28;19971;-61
2021/09/20 07:30:16;;;;;;;;;;;24.50;57.20;;;;;;5076469;28;20000;-61
2021/09/20 07:32:44;;;;;;;;;;;24.50;57.20;;;;;;5075987;28;20467;-61
2021/09/20 07:35:13;;;;;;;;;;;24.60;57.20;;;;;;5088700;28;20011;-61
2021/09/20 07:37:40;;;;;;;;;;;24.50;57.20;;;;;;5068829;28;20015;-61
2021/09/20 07:40:07;;;;;;;;;;;24.50;57.30;;;;;;5069051;28;19975;-61
2021/09/20 07:42:34;;;;;;;;;;;24.50;57.30;;;;;;5077234;28;20343;-61
2021/09/20 07:45:01;;;;;;;;;;;24.50;57.30;;;;;;5077071;28;19924;-61
2021/09/20 07:47:28;;;;;;;;;;;24.50;57.30;;;;;;5075761;28;19928;-61
2021/09/20 07:49:55;;;;;;;;;;;24.50;57.20;;;;;;5075596;28;19925;-61
2021/09/20 07:52:22;;;;;;;;;;;24.50;57.20;;;;;;5067177;28;19932;-61
2021/09/20 07:54:49;;;;;;;;;;;24.50;57.30;;;;;;5057485;28;20011;-61
2021/09/20 07:57:16;;;;;;;;;;;24.50;57.30;;;;;;5068048;28;20031;-61
2021/09/20 07:59:44;;;;;;;;;;;24.50;57.30;;;;;;5087788;28;20331;-61
2021/09/20 08:02:11;;;;;;;;;;;24.50;57.30;;;;;;5072183;28;19999;-61
2021/09/20 08:04:38;;;;;;;;;;;24.50;57.30;;;;;;5059598;28;20288;-61
2021/09/20 08:07:05;;;;;;;;;;;24.50;57.30;;;;;;5090797;28;19928;-62
2021/09/20 08:09:32;;;;;;;;;;;24.60;57.30;;;;;;5091323;28;19955;-60
2021/09/20 08:11:59;;;;;;;;;;;24.50;57.20;;;;;;5093796;28;20019;-61
2021/09/20 08:14:26;;;;;;;;;;;24.50;57.20;;;;;;5092260;28;19967;-61
2021/09/20 08:16:53;;;;;;;;;;;24.50;57.10;;;;;;5072340;28;20254;-61
2021/09/20 08:19:21;;;;;;;;;;;24.60;57.20;;;;;;5074117;28;20403;-61
2021/09/20 08:21:48;;;;;;;;;;;24.60;57.20;;;;;;5091377;28;20010;-62
2021/09/20 08:24:16;;;;;;;;;;;24.60;57.20;;;;;;5074931;28;20007;-61
2021/09/20 08:26:43;;;;;;;;;;;24.60;57.20;;;;;;5074790;28;19931;-61
2021/09/20 08:29:10;;;;;;;;;;;24.60;57.20;;;;;;5062150;28;19996;-62
2021/09/20 08:31:37;;;;;;;;;;;24.60;57.20;;;;;;5069314;28;19951;-61
2021/09/20 08:34:04;;;;;;;;;;;24.60;57.20;;;;;;5072636;28;19925;-61
2021/09/20 08:36:31;;;;;;;;;;;24.60;57.20;;;;;;5075066;28;19931;-61
2021/09/20 08:38:58;;;;;;;;;;;24.60;57.10;;;;;;5073691;28;20499;-61
2021/09/20 08:41:29;;;;;;;;;;;24.60;57.10;;;;;;5083695;28;19924;-61
2021/09/20 08:43:56;;;;;;;;;;;24.60;57.10;;;;;;5083301;28;19924;-61
2021/09/20 08:46:23;;;;;;;;;;;24.60;57.10;;;;;;5073559;28;19924;-61
2021/09/20 08:48:55;;;;;;;;;;;24.60;57.20;;;;;;5074292;28;19925;-61
2021/09/20 08:51:21;;;;;;;;;;;24.60;57.10;;;;;;5073356;28;20019;-62
2021/09/20 08:53:50;;;;;;;;;;;24.60;57.10;;;;;;5073050;28;20011;-61
2021/09/20 08:56:17;;;;;;;;;;;24.60;57.00;;;;;;5074100;28;19970;-62
2021/09/20 08:58:44;;;;;;;;;;;24.60;57.00;;;;;;5077693;28;19924;-62
2021/09/20 09:01:11;;;;;;;;;;;24.60;57.00;;;;;;5087856;28;19990;-62
2021/09/20 09:03:39;;;;;;;;;;;24.60;57.10;;;;;;5072076;28;19924;-61
2021/09/20 09:06:06;;;;;;;;;;;24.60;57.10;;;;;;5058589;28;19928;-62
2021/09/20 09:08:37;;;;;;;;;;;24.60;57.10;;;;;;5056443;28;19963;-61
2021/09/20 09:11:07;;;;;;;;;;;24.60;57.10;;;;;;5055855;28;20347;-62
2021/09/20 09:13:35;;;;;;;;;;;24.60;57.10;;;;;;5055218;28;19975;-61
2021/09/20 09:16:26;;;;;;;;;;;24.60;57.20;;;;;;5073173;28;20345;-62
2021/09/20 09:18:57;;;;;;;;;;;24.60;57.20;;;;;;5072963;28;19924;-61
2021/09/20 09:21:29;;;;;;;;;;;24.60;57.20;;;;;;5056560;28;19928;-61
2021/09/20 09:24:06;;;;;;;;;;;24.60;57.20;;;;;;5055418;28;19968;-62
2021/09/20 09:26:33;;;;;;;;;;;24.60;57.20;;;;;;5055905;28;20879;-62
2021/09/20 09:29:08;;;;;;;;;;;24.60;57.20;;;;;;5072705;28;20008;-62
2021/09/20 09:31:35;;;;;;;;;;;24.60;57.30;;;;;;5072594;28;20001;-62
2021/09/20 09:34:17;;;;;;;;;;;24.50;57.20;;;;;;5071737;28;19924;-62
2021/09/20 09:36:44;;;;;;;;;;;24.50;57.20;;;;;;5056639;28;19925;-62
2021/09/20 09:39:12;;;;;;;;;;;24.60;57.30;;;;;;5071449;28;19924;-62
2021/09/20 09:41:42;;;;;;;;;;;24.60;57.20;;;;;;5072375;28;19931;-62
2021/09/20 09:44:10;;;;;;;;;;;24.60;57.20;;;;;;5072553;28;20346;-61
2021/09/20 09:46:42;;;;;;;;;;;24.60;57.20;;;;;;5073444;28;19975;-62
2021/09/20 09:49:12;;;;;;;;;;;24.60;57.10;;;;;;5072410;28;19928;-61
2021/09/20 09:52:17;;;;;;;;;;;24.60;57.00;;;;;;5073621;28;19942;-62
2021/09/20 09:54:44;;;;;;;;;;;24.60;57.00;;;;;;5049659;28;20079;-61
2021/09/20 09:57:16;;;;;;;;;;;24.70;56.90;;;;;;5031961;28;20486;-61
2021/09/20 09:59:53;;;;;;;;;;;24.70;56.80;;;;;;5032253;28;19925;-61
2021/09/20 10:02:31;;;;;;;;;;;24.70;56.80;;;;;;5049724;28;19995;-62
2021/09/20 10:05:09;;;;;;;;;;;24.80;56.70;;;;;;5032552;28;19937;-62
2021/09/20 10:07:38;;;;;;;;;;;24.80;56.70;;;;;;5033108;28;19979;-61
2021/09/20 10:10:09;;;;;;;;;;;24.80;56.60;;;;;;5049792;28;19925;-62
2021/09/20 10:12:38;;;;;;;;;;;24.80;56.60;;;;;;5067176;28;20024;-61
2021/09/20 10:15:06;;;;;;;;;;;24.80;56.60;;;;;;5030336;28;20463;-62
2021/09/20 10:17:33;;;;;;;;;;;24.80;56.50;;;;;;5049626;28;20419;-62
2021/09/20 10:20:01;;;;;;;;;;;24.80;56.50;;;;;;5049918;28;19925;-62
2021/09/20 10:22:28;;;;;;;;;;;24.80;56.60;;;;;;5049575;28;19948;-61
2021/09/20 10:24:57;;;;;;;;;;;24.80;56.60;;;;;;5048589;28;19971;-61
2021/09/20 10:27:25;;;;;;;;;;;24.80;56.60;;;;;;5048308;28;20007;-62
2021/09/20 10:30:24;;;;;;;;;;;24.80;56.50;;;;;;5050191;28;19964;-61
2021/09/20 10:32:54;;;;;;;;;;;24.90;56.50;;;;;;5028971;28;19932;-62
2021/09/20 10:35:22;;;;;;;;;;;24.90;56.50;;;;;;5045659;28;19961;-62
2021/09/20 10:37:50;;;;;;;;;;;24.90;56.40;;;;;;5030172;28;20377;-61
2021/09/20 10:40:17;;;;;;;;;;;24.90;56.40;;;;;;5029701;28;19994;-61
2021/09/20 10:42:46;;;;;;;;;;;24.90;56.30;;;;;;5043767;28;19964;-62
2021/09/20 10:45:31;;;;;;;;;;;24.90;56.30;;;;;;5034641;28;19967;-62
2021/09/20 10:48:13;;;;;;;;;;;24.90;56.10;;;;;;5033562;28;20022;-62
2021/09/20 10:50:43;;;;;;;;;;;25.00;56.10;;;;;;5033281;28;19936;-61
2021/09/20 10:53:19;;;;;;;;;;;25.10;56.10;;;;;;5033327;28;19925;-61
2021/09/20 10:56:18;;;;;;;;;;;25.10;56.00;;;;;;5033102;28;19937;-62
2021/09/20 10:58:51;;;;;;;;;;;25.10;55.90;;;;;;4955406;28;20089;-62
2021/09/20 11:01:19;;;;;;;;;;;25.10;55.80;;;;;;4972781;28;20073;-61
2021/09/20 11:03:47;;;;;;;;;;;25.20;55.80;;;;;;4956005;28;19926;-62
2021/09/20 11:06:24;;;;;;;;;;;25.20;55.70;;;;;;4955609;28;19926;-61
2021/09/20 11:09:02;;;;;;;;;;;25.30;55.70;;;;;;4966715;28;19926;-61
2021/09/20 11:11:41;;;;;;;;;;;25.30;55.60;;;;;;4994092;28;19930;-61
2021/09/20 11:14:12;;;;;;;;;;;25.30;55.50;;;;;;4993231;28;20322;-61
2021/09/20 11:16:45;;;;;;;;;;;25.30;55.50;;;;;;4993847;28;20091;-61
2021/09/20 11:19:33;;;;;;;;;;;25.30;55.50;;;;;;4993409;28;20008;-61
2021/09/20 11:22:11;;;;;;;;;;;25.30;55.40;;;;;;4987085;28;19937;-61
2021/09/20 11:24:39;;;;;;;;;;;25.30;55.50;;;;;;4978815;28;19975;-61
2021/09/20 11:27:12;;;;;;;;;;;25.30;55.40;;;;;;4977776;28;19926;-61
2021/09/20 11:29:40;;;;;;;;;;;25.30;55.40;;;;;;4976691;28;19926;-61
2021/09/20 11:32:07;;;;;;;;;;;25.40;55.30;;;;;;4992844;28;19960;-60
2021/09/20 11:34:38;;;;;;;;;;;25.40;55.30;;;;;;5039884;28;20352;-61
2021/09/20 11:37:10;;;;;;;;;;;25.40;55.30;;;;;;5069252;28;19924;-61
2021/09/20 11:39:45;;;;;;;;;;;25.40;55.30;;;;;;5074847;28;20007;-61
2021/09/20 11:42:14;;;;;;;;;;;25.40;55.20;;;;;;5074808;28;19931;-58
2021/09/20 11:44:50;;;;;;;;;;;25.40;55.30;;;;;;5075550;28;19932;-61
2021/09/20 11:47:18;;;;;;;;;;;25.40;55.30;;;;;;5092529;28;19924;-61
2021/09/20 11:49:46;;;;;;;;;;;25.40;55.20;;;;;;5057202;28;19997;-61
2021/09/20 11:52:13;;;;;;;;;;;25.40;55.20;;;;;;5075072;28;19994;-61
2021/09/20 11:54:44;;;;;;;;;;;25.40;55.20;;;;;;5075198;28;19932;-60
2021/09/20 11:57:13;;;;;;;;;;;25.40;55.20;;;;;;5074319;28;19929;-61
2021/09/20 11:59:40;;;;;;;;;;;25.40;55.30;;;;;;5076680;28;19978;-61
2021/09/20 12:02:07;;;;;;;;;;;25.40;55.30;;;;;;5074192;28;20394;-61
2021/09/20 12:04:45;;;;;;;;;;;25.40;55.20;;;;;;5075874;28;19985;-61
2021/09/20 12:07:24;;;;;;;;;;;25.40;55.20;;;;;;5063387;28;19970;-61
2021/09/20 12:09:52;;;;;;;;;;;25.40;55.20;;;;;;5059086;28;19925;-61
2021/09/20 12:12:18;;;;;;;;;;;25.50;55.20;;;;;;5072041;28;19964;-61
2021/09/20 12:15:03;;;;;;;;;;;25.40;55.10;;;;;;5076438;28;20318;-61
2021/09/20 12:17:46;;;;;;;;;;;25.50;55.20;;;;;;5074787;28;20400;-61
2021/09/20 12:20:14;;;;;;;;;;;25.50;55.20;;;;;;5074158;28;19962;-61
2021/09/20 12:22:42;;;;;;;;;;;25.40;55.20;;;;;;5073773;28;20349;-61
2021/09/20 12:25:22;;;;;;;;;;;25.40;55.20;;;;;;5075008;28;19978;-61
2021/09/20 12:27:49;;;;;;;;;;;25.40;55.20;;;;;;5060781;28;19929;-60
2021/09/20 12:30:17;;;;;;;;;;;25.40;55.20;;;;;;5069166;28;19963;-61
2021/09/20 12:32:44;;;;;;;;;;;25.40;55.20;;;;;;5074819;28;19960;-61
2021/09/20 12:35:11;;;;;;;;;;;25.40;55.20;;;;;;5073899;28;20342;-61
2021/09/20 12:37:38;;;;;;;;;;;25.40;55.20;;;;;;5074820;28;20003;-61
2021/09/20 12:40:16;;;;;;;;;;;25.40;55.20;;;;;;5073532;28;19932;-61
2021/09/20 12:43:02;;;;;;;;;;;25.40;55.20;;;;;;5074990;28;20024;-61
2021/09/20 12:45:28;;;;;;;;;;;25.40;55.30;;;;;;5063605;28;19979;-61
2021/09/20 12:47:56;;;;;;;;;;;25.30;55.20;;;;;;5067716;28;19955;-61
2021/09/20 12:50:23;;;;;;;;;;;25.30;55.30;;;;;;5081661;28;20409;-61
2021/09/20 12:52:55;;;;;;;;;;;25.30;56.00;;;;;;5081971;28;19971;-61
2021/09/20 12:55:31;;;;;;;;;;;25.30;55.40;;;;;;5075145;28;19950;-61
2021/09/20 12:57:58;;;;;;;;;;;25.30;55.40;;;;;;5080791;28;19924;-60
2021/09/20 13:00:32;;;;;;;;;;;25.30;55.40;;;;;;5084687;28;20014;-61
2021/09/20 13:03:15;;;;;;;;;;;25.30;55.40;;;;;;5073037;28;19932;-61
2021/09/20 13:05:47;;;;;;;;;;;25.30;55.60;;;;;;5074213;28;20335;-61
2021/09/20 13:08:16;;;;;;;;;;;25.30;55.60;;;;;;5072770;28;20357;-61
2021/09/20 13:10:46;;;;;;;;;;;25.30;55.60;;;;;;5074312;28;19971;-61
2021/09/20 13:13:32;;;;;;;;;;;25.30;55.60;;;;;;5074571;28;19974;-61
2021/09/20 13:15:59;;;;;;;;;;;25.30;55.60;;;;;;5065383;28;19951;-61
2021/09/20 13:18:27;;;;;;;;;;;25.30;55.60;;;;;;5063360;28;19939;-61
2021/09/20 13:20:54;;;;;;;;;;;25.20;55.70;;;;;;5072566;28;19924;-61
2021/09/20 13:23:33;;;;;;;;;;;25.20;55.70;;;;;;5072919;28;19963;-61
2021/09/20 13:26:00;;;;;;;;;;;25.20;55.80;;;;;;5074129;28;19950;-61
2021/09/20 13:28:32;;;;;;;;;;;25.20;55.90;;;;;;5073727;28;19967;-61
2021/09/20 13:30:59;;;;;;;;;;;25.20;55.90;;;;;;5069560;28;19978;-61
2021/09/20 13:33:27;;;;;;;;;;;25.10;55.90;;;;;;5059740;28;19924;-62
2021/09/20 13:35:55;;;;;;;;;;;25.10;55.90;;;;;;5071474;28;20344;-61
2021/09/20 13:38:24;;;;;;;;;;;25.10;56.00;;;;;;5057976;28;20019;-61
2021/09/20 13:40:53;;;;;;;;;;;25.10;56.00;;;;;;5073675;28;19925;-61
2021/09/20 13:43:32;;;;;;;;;;;25.10;56.00;;;;;;5088965;28;19924;-61
2021/09/20 13:45:59;;;;;;;;;;;25.10;56.10;;;;;;5071089;28;19977;-61
2021/09/20 13:48:27;;;;;;;;;;;25.10;56.10;;;;;;5056176;28;19925;-61
2021/09/20 13:50:53;;;;;;;;;;;25.00;56.10;;;;;;5073508;28;19960;-61
2021/09/20 13:53:21;;;;;;;;;;;25.00;56.10;;;;;;5073711;28;19924;-61
2021/09/20 13:55:49;;;;;;;;;;;25.10;56.10;;;;;;5055714;28;20347;-61
2021/09/20 13:58:16;;;;;;;;;;;25.10;56.20;;;;;;5071732;28;20296;-61
2021/09/20 14:00:44;;;;;;;;;;;25.00;56.20;;;;;;5072985;28;20007;-61
2021/09/20 14:03:12;;;;;;;;;;;25.00;56.30;;;;;;5071993;28;19931;-62
2021/09/20 14:05:40;;;;;;;;;;;25.00;56.30;;;;;;5072225;28;19942;-61
2021/09/20 14:08:07;;;;;;;;;;;25.00;56.40;;;;;;5074469;28;19975;-61
2021/09/20 14:10:34;;;;;;;;;;;24.90;56.30;;;;;;5058465;28;20373;-61
2021/09/20 14:13:02;;;;;;;;;;;24.90;56.40;;;;;;5100951;28;19925;-61
2021/09/20 14:15:29;;;;;;;;;;;24.90;56.50;;;;;;5060551;28;19935;-61
2021/09/20 14:17:57;;;;;;;;;;;24.90;56.50;;;;;;5066542;28;19925;-61
2021/09/20 14:20:25;;;;;;;;;;;24.90;56.40;;;;;;5077379;28;19978;-61
2021/09/20 14:22:53;;;;;;;;;;;24.90;56.40;;;;;;5077605;28;20319;-61
2021/09/20 14:25:21;;;;;;;;;;;24.90;56.40;;;;;;5076003;28;20023;-61